Time;durP1;ratioP1;P1;durP2;ratioP2;P2;SDS_P1;SDS_P2;PMS_P1;PMS_P2;Temp;Humidity;BMP_temperature;BMP_pressure;BME280_temperature;BME280_humidity;BME280_pressure;Samples;Min_cycle;Max_cycle;Signal;HPM_P1;HPM_P2
2022/08/23 00:01:56;;;;;;;0.50;0.50;;;10.90;99.90;;;;;;5113144;28;20230;-71
2022/08/23 00:04:31;;;;;;;0.60;0.60;;;10.80;99.90;;;;;;5114163;28;20385;-71
2022/08/23 00:06:58;;;;;;;0.50;0.50;;;10.80;99.90;;;;;;5113168;28;20560;-71
2022/08/23 00:09:25;;;;;;;0.60;0.60;;;10.70;99.90;;;;;;5114198;28;20242;-71
2022/08/23 00:12:02;;;;;;;0.60;0.60;;;10.70;99.90;;;;;;5112956;28;20195;-71
2022/08/23 00:14:31;;;;;;;0.50;0.50;;;10.60;99.90;;;;;;5112865;28;20204;-72
2022/08/23 00:16:57;;;;;;;0.60;0.60;;;10.60;99.90;;;;;;5114347;28;20199;-71
2022/08/23 00:19:25;;;;;;;0.70;0.70;;;10.50;99.90;;;;;;5112844;28;20222;-71
2022/08/23 00:21:53;;;;;;;0.70;0.70;;;10.50;99.90;;;;;;5112498;28;20318;-71
2022/08/23 00:24:21;;;;;;;0.60;0.60;;;10.40;99.90;;;;;;5113047;28;20203;-70
2022/08/23 00:27:03;;;;;;;0.57;0.57;;;10.40;99.90;;;;;;5114024;28;20619;-70
2022/08/23 00:29:39;;;;;;;0.50;0.50;;;10.30;99.90;;;;;;5113918;28;20183;-70
2022/08/23 00:32:11;;;;;;;0.50;0.50;;;10.20;99.90;;;;;;5112198;28;20233;-70
2022/08/23 00:34:37;;;;;;;0.60;0.60;;;10.20;99.90;;;;;;5113617;28;20195;-70
2022/08/23 00:37:04;;;;;;;0.60;0.60;;;10.10;99.90;;;;;;5113867;28;20188;-70
2022/08/23 00:39:30;;;;;;;0.60;0.60;;;10.10;99.90;;;;;;5112216;28;20215;-71
2022/08/23 00:41:59;;;;;;;0.60;0.60;;;10.00;99.90;;;;;;5113714;28;20203;-70
2022/08/23 00:50:21;;;;;;;0.57;0.57;;;9.90;99.90;;;;;;5113890;28;20252;-70
2022/08/23 00:53:11;;;;;;;0.60;0.60;;;9.80;99.90;;;;;;5113720;28;20187;-72
2022/08/23 00:55:39;;;;;;;0.60;0.60;;;9.80;99.90;;;;;;5111964;28;20191;-71
2022/08/23 00:58:07;;;;;;;0.52;0.52;;;9.70;99.90;;;;;;5113546;28;20183;-72
2022/08/23 01:00:33;;;;;;;0.60;0.60;;;9.70;99.90;;;;;;5112618;28;20563;-70
2022/08/23 01:03:01;;;;;;;0.50;0.50;;;9.60;99.90;;;;;;5112122;28;20649;-70
2022/08/23 01:05:36;;;;;;;0.60;0.60;;;9.60;99.90;;;;;;5113385;28;20553;-71
2022/08/23 01:08:02;;;;;;;0.60;0.60;;;9.60;99.90;;;;;;5113588;28;20209;-71
2022/08/23 01:10:46;;;;;;;0.60;0.60;;;9.70;99.90;;;;;;5113349;28;20269;-71
2022/08/23 01:13:34;;;;;;;0.82;0.82;;;9.60;99.90;;;;;;5113447;28;20684;-71
2022/08/23 01:16:17;;;;;;;0.60;0.60;;;9.60;99.90;;;;;;5111988;28;20703;-72
2022/08/23 01:18:44;;;;;;;0.60;0.60;;;9.60;99.90;;;;;;5113169;28;20192;-72
2022/08/23 01:21:18;;;;;;;0.80;0.80;;;9.50;99.90;;;;;;5113089;28;20251;-71
2022/08/23 01:23:57;;;;;;;1.40;1.13;;;9.50;99.90;;;;;;5112075;28;20566;-71
2022/08/23 01:26:27;;;;;;;0.60;0.60;;;9.40;99.90;;;;;;5112980;28;20547;-71
2022/08/23 01:28:53;;;;;;;0.85;0.85;;;9.40;99.90;;;;;;5111969;28;20218;-71
2022/08/23 01:31:22;;;;;;;0.60;0.60;;;9.30;99.90;;;;;;5098045;28;20200;-72
2022/08/23 01:33:55;;;;;;;0.60;0.60;;;9.30;99.90;;;;;;5092891;28;20261;-71
2022/08/23 01:36:20;;;;;;;0.60;0.60;;;9.20;99.90;;;;;;5091270;28;20202;-72
2022/08/23 01:38:47;;;;;;;0.60;0.60;;;9.20;99.90;;;;;;5091378;28;20287;-72
2022/08/23 01:41:13;;;;;;;0.60;0.60;;;9.20;99.90;;;;;;5094754;28;20230;-71
2022/08/23 01:43:39;;;;;;;0.60;0.60;;;9.10;99.90;;;;;;5114468;28;20195;-72
2022/08/23 01:46:11;;;;;;;0.70;0.70;;;9.10;99.90;;;;;;5112366;28;20294;-71
2022/08/23 01:48:38;;;;;;;0.70;0.70;;;9.10;99.90;;;;;;5097817;28;20219;-71
2022/08/23 01:51:04;;;;;;;0.60;0.60;;;9.00;99.90;;;;;;5117351;28;20599;-72
2022/08/23 01:53:30;;;;;;;0.70;0.70;;;9.00;99.90;;;;;;5117019;28;20676;-71
2022/08/23 01:55:57;;;;;;;0.60;0.60;;;9.00;99.90;;;;;;5115782;28;20199;-70
2022/08/23 01:58:23;;;;;;;0.60;0.60;;;8.90;99.90;;;;;;5114828;28;20730;-69
2022/08/23 02:00:49;;;;;;;0.55;0.55;;;8.90;99.90;;;;;;5115470;28;20824;-71
2022/08/23 02:03:15;;;;;;;0.60;0.60;;;8.90;99.90;;;;;;5115424;28;20196;-71
2022/08/23 02:05:42;;;;;;;0.60;0.60;;;9.00;99.90;;;;;;5115413;28;20196;-72
2022/08/23 02:10:53;;;;;;;0.60;0.60;;;9.00;99.90;;;;;;5117012;28;20205;-73
2022/08/23 02:13:20;;;;;;;0.63;0.63;;;9.00;99.90;;;;;;5115475;28;20207;-72
2022/08/23 02:15:49;;;;;;;0.50;0.50;;;9.00;99.90;;;;;;5116490;28;20199;-69
2022/08/23 02:18:17;;;;;;;0.60;0.60;;;9.00;99.90;;;;;;5116618;28;20285;-70
2022/08/23 02:20:50;;;;;;;0.60;0.60;;;9.00;99.90;;;;;;5114726;28;20730;-71
2022/08/23 02:23:17;;;;;;;0.63;0.63;;;9.00;99.90;;;;;;5116477;28;20187;-73
2022/08/23 02:25:43;;;;;;;0.63;0.63;;;8.90;99.90;;;;;;5116405;28;20191;-70
2022/08/23 02:28:09;;;;;;;0.60;0.60;;;8.90;99.90;;;;;;5116398;28;20261;-69
2022/08/23 02:30:35;;;;;;;0.60;0.60;;;8.90;99.90;;;;;;5116434;28;20188;-70
2022/08/23 02:33:00;;;;;;;0.70;0.70;;;8.90;99.90;;;;;;5116417;28;20245;-71
2022/08/23 02:35:27;;;;;;;0.60;0.60;;;8.90;99.90;;;;;;5114978;28;20233;-73
2022/08/23 02:37:54;;;;;;;0.70;0.70;;;8.80;99.90;;;;;;5114835;28;20715;-71
2022/08/23 02:40:21;;;;;;;0.70;0.70;;;8.80;99.90;;;;;;5114589;28;20203;-71
2022/08/23 02:42:48;;;;;;;0.70;0.70;;;8.70;99.90;;;;;;5116198;28;20670;-72
2022/08/23 02:45:15;;;;;;;2.05;1.27;;;8.70;99.90;;;;;;5114360;28;20198;-72
2022/08/23 02:47:44;;;;;;;0.70;0.70;;;8.70;99.90;;;;;;5116127;28;20257;-71
2022/08/23 02:50:11;;;;;;;0.70;0.70;;;8.70;99.90;;;;;;5115515;27;20192;-71
2022/08/23 02:52:36;;;;;;;0.60;0.60;;;8.70;99.90;;;;;;5115585;28;20278;-71
2022/08/23 02:55:03;;;;;;;0.70;0.70;;;8.60;99.90;;;;;;5115422;28;20278;-71
2022/08/23 02:57:28;;;;;;;0.60;0.60;;;8.60;99.90;;;;;;5115728;28;20192;-71
2022/08/23 02:59:57;;;;;;;0.60;0.60;;;8.50;99.90;;;;;;5114307;28;20195;-71
2022/08/23 03:02:23;;;;;;;0.60;0.60;;;8.50;99.90;;;;;;5111600;27;20631;-71
2022/08/23 03:04:48;;;;;;;0.60;0.60;;;8.50;99.90;;;;;;5113823;28;20223;-71
2022/08/23 03:07:14;;;;;;;0.70;0.70;;;8.50;99.90;;;;;;5114344;28;20711;-72
2022/08/23 03:09:40;;;;;;;0.70;0.70;;;8.40;99.90;;;;;;5115456;28;20190;-70
2022/08/23 03:12:06;;;;;;;0.65;0.65;;;8.40;99.90;;;;;;5115471;28;20282;-72
2022/08/23 03:14:32;;;;;;;0.63;0.63;;;8.40;99.90;;;;;;5114186;28;20230;-71
2022/08/23 03:16:58;;;;;;;0.60;0.60;;;8.40;99.90;;;;;;5114278;28;20227;-72
2022/08/23 03:19:23;;;;;;;0.70;0.70;;;8.40;99.90;;;;;;5115225;28;20257;-71
2022/08/23 03:21:49;;;;;;;0.65;0.65;;;8.40;99.90;;;;;;5115323;28;20231;-71
2022/08/23 03:24:15;;;;;;;0.88;0.88;;;8.30;99.90;;;;;;5115243;28;20218;-74
2022/08/23 03:26:44;;;;;;;0.70;0.70;;;8.40;99.90;;;;;;5115197;27;20552;-70
2022/08/23 03:29:10;;;;;;;0.77;0.77;;;8.40;99.90;;;;;;5113962;28;20188;-69
2022/08/23 03:31:36;;;;;;;0.60;0.60;;;8.40;99.90;;;;;;5113742;28;20566;-70
2022/08/23 03:34:03;;;;;;;0.60;0.60;;;8.40;99.90;;;;;;5113793;28;20210;-70
2022/08/23 03:36:29;;;;;;;1.67;1.58;;;8.50;99.90;;;;;;5115220;28;20195;-69
2022/08/23 03:38:58;;;;;;;0.60;0.60;;;8.50;99.90;;;;;;5115082;28;20650;-70
2022/08/23 03:41:28;;;;;;;0.68;0.68;;;8.50;99.90;;;;;;5114573;28;20340;-70
2022/08/23 03:43:53;;;;;;;0.60;0.60;;;8.50;99.90;;;;;;5115068;28;20191;-71
2022/08/23 03:46:22;;;;;;;0.70;0.70;;;8.50;99.90;;;;;;5114595;28;20211;-71
2022/08/23 03:48:58;;;;;;;0.60;0.60;;;8.50;99.90;;;;;;5114596;28;20198;-71
2022/08/23 03:51:26;;;;;;;0.70;0.70;;;8.50;99.90;;;;;;5114584;28;20186;-70
2022/08/23 03:53:52;;;;;;;0.82;0.80;;;8.40;99.90;;;;;;5113449;28;20192;-71
2022/08/23 03:56:21;;;;;;;0.80;0.80;;;8.40;99.90;;;;;;5113284;28;20227;-70
2022/08/23 03:58:47;;;;;;;0.70;0.70;;;8.40;99.90;;;;;;5113640;28;20279;-74
2022/08/23 04:01:13;;;;;;;0.60;0.60;;;8.40;99.90;;;;;;5114325;28;20207;-74
2022/08/23 04:03:39;;;;;;;0.60;0.60;;;8.40;99.90;;;;;;5113141;28;20202;-75
2022/08/23 04:06:05;;;;;;;0.65;0.65;;;8.40;99.90;;;;;;5112476;28;20240;-74
2022/08/23 04:08:31;;;;;;;0.60;0.60;;;8.40;99.90;;;;;;5114493;28;20184;-74
2022/08/23 04:10:56;;;;;;;0.60;0.60;;;8.40;99.90;;;;;;5114440;28;20242;-74
2022/08/23 04:13:23;;;;;;;0.70;0.70;;;8.40;99.90;;;;;;5114136;28;20205;-74
2022/08/23 04:15:49;;;;;;;0.60;0.60;;;8.40;99.90;;;;;;5113008;28;20248;-74
2022/08/23 04:18:15;;;;;;;0.60;0.60;;;8.40;99.90;;;;;;5112922;28;20286;-74
2022/08/23 04:20:41;;;;;;;0.60;0.60;;;8.40;99.90;;;;;;5113709;28;20305;-74
2022/08/23 04:23:07;;;;;;;0.60;0.60;;;8.40;99.90;;;;;;5114211;28;20266;-74
2022/08/23 04:25:34;;;;;;;0.70;0.70;;;8.40;99.90;;;;;;5113972;28;20594;-74
2022/08/23 04:27:59;;;;;;;0.70;0.70;;;8.40;99.90;;;;;;5114150;28;20192;-74
2022/08/23 04:30:25;;;;;;;0.60;0.60;;;8.40;99.90;;;;;;5114081;28;20541;-73
2022/08/23 04:32:51;;;;;;;0.80;0.80;;;8.50;99.90;;;;;;5113988;28;20200;-73
2022/08/23 04:35:17;;;;;;;0.70;0.70;;;8.50;99.90;;;;;;5113944;28;20183;-73
2022/08/23 04:37:42;;;;;;;0.60;0.60;;;8.60;99.90;;;;;;5114032;28;20563;-74
2022/08/23 04:42:57;;;;;;;0.70;0.70;;;8.70;99.90;;;;;;5113997;28;20206;-75
2022/08/23 04:45:25;;;;;;;0.60;0.60;;;8.80;99.90;;;;;;5113185;28;20260;-73
2022/08/23 04:47:50;;;;;;;0.77;0.77;;;8.90;99.90;;;;;;5112436;28;20726;-75
2022/08/23 04:50:16;;;;;;;1.05;0.88;;;8.90;99.90;;;;;;5112611;28;20274;-75
2022/08/23 04:52:42;;;;;;;0.60;0.60;;;9.10;99.90;;;;;;5112370;28;20199;-75
2022/08/23 04:55:08;;;;;;;0.70;0.70;;;9.20;99.90;;;;;;5112543;28;20199;-75
2022/08/23 04:57:34;;;;;;;0.63;0.63;;;9.30;99.90;;;;;;5113627;28;20199;-74
2022/08/23 04:59:59;;;;;;;0.60;0.60;;;9.30;99.90;;;;;;5113566;28;20191;-75
2022/08/23 05:02:26;;;;;;;0.73;0.73;;;9.40;99.90;;;;;;5113646;28;20252;-74
2022/08/23 05:04:52;;;;;;;0.60;0.60;;;9.60;99.90;;;;;;5112185;28;20256;-73
2022/08/23 05:07:18;;;;;;;0.60;0.60;;;9.70;99.90;;;;;;5113518;28;20215;-74
2022/08/23 05:09:44;;;;;;;0.60;0.60;;;9.70;99.90;;;;;;5112245;28;20631;-74
2022/08/23 05:12:10;;;;;;;0.70;0.70;;;9.80;99.90;;;;;;5113741;28;20646;-74
2022/08/23 05:14:36;;;;;;;0.60;0.60;;;9.90;99.90;;;;;;5112073;28;20199;-75
2022/08/23 05:17:02;;;;;;;0.63;0.63;;;10.10;99.90;;;;;;5113208;28;20199;-74
2022/08/23 05:19:28;;;;;;;1.20;0.88;;;10.30;99.90;;;;;;5111996;28;20649;-75
2022/08/23 05:21:56;;;;;;;0.60;0.60;;;10.50;99.90;;;;;;5112898;28;20227;-75
2022/08/23 05:24:22;;;;;;;0.60;0.60;;;10.60;99.90;;;;;;5113197;28;20187;-74
2022/08/23 05:26:48;;;;;;;0.70;0.70;;;10.70;99.90;;;;;;5111967;28;20213;-74
2022/08/23 05:29:14;;;;;;;0.60;0.60;;;10.90;99.90;;;;;;5112011;28;20721;-74
2022/08/23 05:31:39;;;;;;;0.60;0.60;;;11.10;99.90;;;;;;5111850;28;20676;-75
2022/08/23 05:34:05;;;;;;;0.57;0.57;;;11.20;99.90;;;;;;5113308;28;20191;-74
2022/08/23 05:36:31;;;;;;;0.63;0.63;;;11.30;99.90;;;;;;5113259;28;20196;-74
2022/08/23 05:38:57;;;;;;;0.93;0.88;;;11.40;99.90;;;;;;5113260;28;20191;-74
2022/08/23 05:41:23;;;;;;;0.95;0.70;;;11.40;99.90;;;;;;5112622;28;20670;-73
2022/08/23 05:43:49;;;;;;;0.50;0.50;;;11.50;99.90;;;;;;5113189;28;20244;-74
2022/08/23 05:46:18;;;;;;;0.55;0.55;;;11.60;99.90;;;;;;5099588;28;20245;-76
2022/08/23 05:48:46;;;;;;;0.70;0.70;;;11.70;99.90;;;;;;5092651;28;20196;-73
2022/08/23 05:51:18;;;;;;;0.63;0.63;;;11.70;99.90;;;;;;5092793;28;20204;-75
2022/08/23 05:53:45;;;;;;;0.60;0.60;;;11.80;99.90;;;;;;5091456;28;20200;-76
2022/08/23 05:56:15;;;;;;;0.50;0.50;;;11.90;99.90;;;;;;5091383;28;20200;-74
2022/08/23 05:58:42;;;;;;;0.60;0.60;;;12.00;99.90;;;;;;5092605;28;20188;-74
2022/08/23 06:01:09;;;;;;;0.57;0.57;;;12.10;99.90;;;;;;5092311;28;20200;-74
2022/08/23 06:03:35;;;;;;;0.60;0.60;;;12.20;99.90;;;;;;5091095;28;20678;-74
2022/08/23 06:06:02;;;;;;;0.50;0.50;;;12.40;99.90;;;;;;5092860;28;20223;-74
2022/08/23 06:08:30;;;;;;;0.77;0.77;;;12.60;99.90;;;;;;5090601;28;20253;-74
2022/08/23 06:11:03;;;;;;;0.82;0.75;;;12.90;99.90;;;;;;5094276;28;20192;-73
2022/08/23 06:13:30;;;;;;;2.45;1.65;;;13.10;99.90;;;;;;5108527;28;20295;-74
2022/08/23 06:15:56;;;;;;;0.70;0.70;;;13.20;99.90;;;;;;5092860;28;20559;-74
2022/08/23 06:18:23;;;;;;;1.15;0.77;;;13.40;99.90;;;;;;5091724;28;20565;-74
2022/08/23 06:20:59;;;;;;;0.43;0.43;;;13.60;99.90;;;;;;5091471;28;20289;-75
2022/08/23 06:23:25;;;;;;;0.40;0.40;;;13.70;99.90;;;;;;5101808;28;20210;-74
2022/08/23 06:25:51;;;;;;;0.50;0.50;;;13.70;99.90;;;;;;5113617;28;20191;-74
2022/08/23 06:28:17;;;;;;;0.68;0.68;;;13.60;99.90;;;;;;5112050;28;20222;-74
2022/08/23 06:30:43;;;;;;;0.45;0.45;;;13.60;99.90;;;;;;5116479;28;20195;-74
2022/08/23 06:33:08;;;;;;;0.50;0.50;;;13.70;99.90;;;;;;5116450;28;20184;-74
2022/08/23 06:35:34;;;;;;;0.50;0.50;;;13.70;99.90;;;;;;5116299;28;20214;-74
2022/08/23 06:38:02;;;;;;;0.50;0.50;;;13.80;99.90;;;;;;5116310;28;20192;-76
2022/08/23 06:40:28;;;;;;;0.60;0.60;;;13.80;99.90;;;;;;5114719;28;20195;-76
2022/08/23 06:42:56;;;;;;;0.60;0.60;;;13.70;99.90;;;;;;5116232;28;20566;-76
2022/08/23 06:45:22;;;;;;;0.57;0.57;;;13.80;99.90;;;;;;5109828;28;20724;-76
2022/08/23 06:47:48;;;;;;;0.50;0.50;;;14.00;99.90;;;;;;5094479;28;20196;-76
2022/08/23 06:50:13;;;;;;;0.50;0.50;;;14.10;99.90;;;;;;5095657;28;20204;-76
2022/08/23 06:52:39;;;;;;;0.50;0.50;;;14.40;99.90;;;;;;5095576;28;20188;-76
2022/08/23 06:55:05;;;;;;;0.43;0.43;;;14.60;99.90;;;;;;5095482;28;20237;-76
2022/08/23 06:57:31;;;;;;;0.60;0.60;;;14.90;99.90;;;;;;5095665;28;20346;-76
2022/08/23 06:59:59;;;;;;;0.70;0.70;;;15.10;99.90;;;;;;5094122;28;20737;-76
2022/08/23 07:02:28;;;;;;;0.55;0.55;;;15.20;99.90;;;;;;5093803;28;20624;-75
2022/08/23 07:04:57;;;;;;;0.50;0.50;;;15.30;99.90;;;;;;5095131;28;20195;-75
2022/08/23 07:07:22;;;;;;;0.40;0.40;;;15.30;99.90;;;;;;5096238;28;20675;-75
2022/08/23 07:09:48;;;;;;;0.47;0.47;;;15.40;99.90;;;;;;5114839;28;20202;-76
2022/08/23 07:12:15;;;;;;;0.52;0.52;;;15.40;99.90;;;;;;5115497;28;20275;-76
2022/08/23 07:14:41;;;;;;;0.35;0.35;;;15.60;99.90;;;;;;5113878;28;20195;-76
2022/08/23 07:17:08;;;;;;;0.52;0.52;;;15.70;99.90;;;;;;5115365;28;20199;-76
2022/08/23 07:19:35;;;;;;;0.38;0.38;;;15.90;99.90;;;;;;5115170;28;20540;-76
2022/08/23 07:22:06;;;;;;;0.40;0.40;;;16.00;99.90;;;;;;5114844;28;20227;-76
2022/08/23 07:24:32;;;;;;;0.32;0.32;;;16.20;99.90;;;;;;5113997;28;20191;-75
2022/08/23 07:27:00;;;;;;;0.45;0.45;;;16.30;99.90;;;;;;5113960;28;20658;-76
2022/08/23 07:29:28;;;;;;;0.30;0.30;;;16.40;99.90;;;;;;5115159;28;20190;-75
2022/08/23 07:31:55;;;;;;;0.98;0.80;;;16.50;99.90;;;;;;5115774;28;20669;-76
2022/08/23 07:34:22;;;;;;;0.40;0.40;;;16.60;99.90;;;;;;5115306;27;20585;-76
2022/08/23 07:36:49;;;;;;;0.50;0.50;;;16.90;99.90;;;;;;5115464;28;20283;-76
2022/08/23 07:39:25;;;;;;;0.40;0.40;;;17.30;99.90;;;;;;5114068;28;20241;-76
2022/08/23 07:41:51;;;;;;;0.40;0.40;;;17.60;99.90;;;;;;5114202;28;20214;-75
2022/08/23 07:44:20;;;;;;;0.60;0.60;;;17.70;99.90;;;;;;5115361;28;20568;-75
2022/08/23 07:46:46;;;;;;;0.30;0.30;;;17.40;99.90;;;;;;5096308;28;20817;-76
2022/08/23 07:49:13;;;;;;;0.30;0.30;;;17.30;99.90;;;;;;5093913;28;20275;-76
2022/08/23 07:51:41;;;;;;;0.30;0.30;;;17.20;99.90;;;;;;5093570;28;20207;-76
2022/08/23 07:54:09;;;;;;;0.90;0.63;;;17.10;99.90;;;;;;5094640;28;20196;-76
2022/08/23 07:56:36;;;;;;;0.40;0.40;;;17.00;99.90;;;;;;5093120;28;20200;-75
2022/08/23 07:59:02;;;;;;;0.55;0.50;;;17.10;99.90;;;;;;5093138;28;20199;-73
2022/08/23 08:01:28;;;;;;;0.30;0.30;;;17.20;99.90;;;;;;5094631;28;20254;-74
2022/08/23 08:03:57;;;;;;;0.40;0.40;;;17.50;99.90;;;;;;5098784;28;20271;-75
2022/08/23 08:06:37;;;;;;;0.40;0.40;;;17.70;99.90;;;;;;5115170;28;20195;-74
2022/08/23 08:09:04;;;;;;;0.32;0.32;;;17.80;99.90;;;;;;5114303;28;20202;-73
2022/08/23 08:11:37;;;;;;;0.57;0.45;;;18.00;99.90;;;;;;5113898;28;20195;-74
2022/08/23 08:14:06;;;;;;;0.45;0.45;;;18.30;99.90;;;;;;5115078;28;20598;-74
2022/08/23 08:16:41;;;;;;;0.30;0.30;;;18.70;99.90;;;;;;5115158;28;20196;-74
2022/08/23 08:19:10;;;;;;;0.40;0.32;;;19.00;99.90;;;;;;5115400;28;20200;-74
2022/08/23 08:21:38;;;;;;;0.30;0.30;;;19.20;99.90;;;;;;5114639;28;20306;-75
2022/08/23 08:24:09;;;;;;;0.95;0.60;;;19.60;99.90;;;;;;5114828;28;20188;-74
2022/08/23 08:26:35;;;;;;;0.30;0.30;;;19.80;99.90;;;;;;5113590;28;20191;-74
2022/08/23 08:29:01;;;;;;;1.33;0.50;;;20.00;99.90;;;;;;5113661;28;20202;-75
2022/08/23 08:31:27;;;;;;;0.30;0.30;;;20.20;99.90;;;;;;5114053;28;20226;-75
2022/08/23 08:33:53;;;;;;;0.20;0.20;;;20.60;99.90;;;;;;5113363;28;20256;-75
2022/08/23 08:36:28;;;;;;;0.30;0.30;;;20.90;99.90;;;;;;5113223;28;20200;-75
2022/08/23 08:38:54;;;;;;;0.43;0.35;;;21.20;99.90;;;;;;5113129;28;20285;-75
2022/08/23 08:41:36;;;;;;;0.28;0.28;;;21.60;99.90;;;;;;5112970;28;20246;-75
2022/08/23 08:44:13;;;;;;;0.30;0.30;;;21.90;99.90;;;;;;5114037;28;20236;-75
2022/08/23 08:46:48;;;;;;;0.20;0.20;;;22.20;99.90;;;;;;5113801;28;20637;-75
2022/08/23 08:49:31;;;;;;;0.20;0.20;;;22.20;99.90;;;;;;5114298;28;20675;-74
2022/08/23 08:52:25;;;;;;;0.32;0.32;;;22.00;99.90;;;;;;5111707;28;20226;-75
2022/08/23 08:54:59;;;;;;;0.70;0.50;;;22.20;99.90;;;;;;5110434;28;20207;-75
2022/08/23 08:57:25;;;;;;;0.28;0.28;;;22.20;99.90;;;;;;5113729;28;20250;-75
2022/08/23 09:00:00;;;;;;;0.25;0.25;;;22.20;99.90;;;;;;5114702;28;20199;-75
2022/08/23 09:02:31;;;;;;;0.43;0.43;;;22.10;99.90;;;;;;5113029;28;20226;-75
2022/08/23 09:05:10;;;;;;;0.20;0.20;;;22.50;99.90;;;;;;5113784;28;20191;-75
2022/08/23 09:07:56;;;;;;;0.20;0.20;;;22.70;99.90;;;;;;5114848;28;20221;-74
2022/08/23 09:10:32;;;;;;;0.20;0.20;;;22.80;99.90;;;;;;5111770;28;20206;-75
2022/08/23 09:13:25;;;;;;;0.20;0.20;;;23.00;99.90;;;;;;5114862;28;20203;-76
2022/08/23 09:16:17;;;;;;;0.20;0.20;;;23.00;99.90;;;;;;5114890;28;20191;-75
2022/08/23 09:18:44;;;;;;;0.38;0.38;;;23.00;99.90;;;;;;5114935;28;20240;-75
2022/08/23 09:21:10;;;;;;;0.32;0.30;;;22.70;99.90;;;;;;5113240;28;20701;-75
2022/08/23 09:23:41;;;;;;;0.88;0.52;;;22.40;99.90;;;;;;5112952;28;20241;-75
2022/08/23 09:26:29;;;;;;;0.20;0.20;;;22.30;99.90;;;;;;5113008;28;20195;-74
2022/08/23 09:29:03;;;;;;;0.20;0.20;;;22.30;99.90;;;;;;5114212;28;20207;-75
2022/08/23 09:32:25;;;;;;;0.50;0.40;;;22.30;99.90;;;;;;5113921;28;20195;-75
2022/08/23 09:34:51;;;;;;;0.57;0.57;;;22.10;99.90;;;;;;5071319;28;20295;-75
2022/08/23 09:37:22;;;;;;;0.20;0.20;;;21.80;99.90;;;;;;5054487;28;20300;-75
2022/08/23 09:40:18;;;;;;;0.40;0.40;;;21.60;99.90;;;;;;5071469;28;20201;-75
2022/08/23 09:42:46;;;;;;;0.85;0.32;;;21.40;99.90;;;;;;5071407;28;20273;-75
2022/08/23 09:45:31;;;;;;;0.30;0.30;;;21.70;99.90;;;;;;5054661;28;20219;-75
2022/08/23 09:47:56;;;;;;;0.20;0.20;;;22.20;99.90;;;;;;5054616;28;20808;-75
2022/08/23 09:50:28;;;;;;;0.30;0.30;;;22.60;99.90;;;;;;5071288;28;20276;-75
2022/08/23 09:53:00;;;;;;;0.20;0.20;;;22.90;99.90;;;;;;5071397;28;20614;-74
2022/08/23 09:55:30;;;;;;;0.40;0.40;;;23.10;99.90;;;;;;5071542;28;20212;-75
2022/08/23 09:57:58;;;;;;;0.20;0.20;;;22.70;99.90;;;;;;5071281;28;20209;-74
2022/08/23 10:00:26;;;;;;;0.55;0.55;;;22.20;99.90;;;;;;5070811;28;20542;-74
2022/08/23 10:02:56;;;;;;;0.20;0.20;;;21.90;99.90;;;;;;5054526;28;20217;-75
2022/08/23 10:05:35;;;;;;;4.20;0.77;;;22.20;99.90;;;;;;5074969;28;20285;-74
2022/08/23 10:08:03;;;;;;;0.30;0.30;;;22.70;99.90;;;;;;5091925;27;20214;-75
2022/08/23 10:10:48;;;;;;;0.30;0.30;;;22.50;99.90;;;;;;5118142;28;20260;-75
2022/08/23 10:13:14;;;;;;;2.05;0.75;;;22.70;99.90;;;;;;5118148;28;20199;-75
2022/08/23 10:16:27;;;;;;;0.35;0.32;;;22.60;99.90;;;;;;5116127;28;20743;-75
2022/08/23 10:18:53;;;;;;;0.40;0.40;;;22.50;99.90;;;;;;5097721;28;20725;-75
2022/08/23 10:21:40;;;;;;;0.20;0.20;;;22.20;99.90;;;;;;5116243;28;20239;-75
2022/08/23 10:24:43;;;;;;;0.20;0.20;;;22.10;99.90;;;;;;5118608;28;20188;-75
2022/08/23 10:31:04;;;;;;;0.10;0.10;;;21.80;99.90;;;;;;5055544;28;20236;-75
2022/08/23 10:34:13;;;;;;;0.20;0.20;;;22.30;99.90;;;;;;5055891;28;20197;-76
2022/08/23 10:36:53;;;;;;;0.22;0.22;;;22.70;99.90;;;;;;5052509;28;20220;-76
2022/08/23 10:39:23;;;;;;;0.20;0.20;;;22.60;99.90;;;;;;5113210;28;20660;-75
2022/08/23 10:42:24;;;;;;;0.25;0.25;;;22.70;99.90;;;;;;5117000;28;20284;-75
2022/08/23 10:45:17;;;;;;;0.20;0.20;;;22.70;99.90;;;;;;5115684;28;20664;-75
2022/08/23 10:48:09;;;;;;;2.65;0.77;;;23.10;99.90;;;;;;5095271;28;20245;-75
2022/08/23 10:50:51;;;;;;;0.70;0.47;;;23.30;99.90;;;;;;5096027;28;20682;-75
2022/08/23 10:53:19;;;;;;;0.10;0.10;;;23.40;99.90;;;;;;5104726;28;20221;-75
2022/08/23 10:56:03;;;;;;;0.40;0.40;;;23.40;99.90;;;;;;5117135;28;20192;-75
2022/08/23 10:58:40;;;;;;;0.30;0.30;;;23.10;99.90;;;;;;5117057;28;20191;-76
2022/08/23 11:01:07;;;;;;;0.35;0.35;;;23.00;99.90;;;;;;5115026;28;20234;-75
2022/08/23 11:04:05;;;;;;;0.30;0.30;;;22.90;99.90;;;;;;5115157;28;20591;-76
2022/08/23 11:06:36;;;;;;;0.20;0.20;;;22.60;99.90;;;;;;5106360;28;20225;-75
2022/08/23 11:09:08;;;;;;;1.15;0.60;;;22.60;99.90;;;;;;5117121;28;20272;-75
2022/08/23 11:11:47;;;;;;;0.25;0.25;;;22.90;99.90;;;;;;5116633;28;20195;-75
2022/08/23 11:14:39;;;;;;;0.38;0.38;;;23.30;99.90;;;;;;5115755;28;20196;-76
2022/08/23 11:17:30;;;;;;;1.38;0.85;;;23.70;99.90;;;;;;5117600;28;20191;-75
2022/08/23 11:20:09;;;;;;;0.38;0.38;;;24.10;99.90;;;;;;5116992;28;20565;-75
2022/08/23 11:22:57;;;;;;;0.20;0.20;;;24.30;99.90;;;;;;5117023;28;20723;-76
2022/08/23 11:25:22;;;;;;;0.17;0.17;;;24.50;99.90;;;;;;5115704;28;20191;-76
2022/08/23 11:27:48;;;;;;;0.30;0.30;;;24.50;99.90;;;;;;5115965;28;20240;-76
2022/08/23 11:30:44;;;;;;;0.20;0.20;;;24.60;99.90;;;;;;5116259;28;20192;-76
2022/08/23 11:33:23;;;;;;;3.65;0.35;;;24.30;99.90;;;;;;5115905;28;20192;-75
2022/08/23 11:36:17;;;;;;;0.30;0.30;;;24.30;99.90;;;;;;5117211;28;20320;-76
2022/08/23 11:38:48;;;;;;;0.10;0.10;;;24.30;99.90;;;;;;5115797;28;20685;-76
2022/08/23 11:41:30;;;;;;;0.93;0.85;;;23.90;99.90;;;;;;5117103;28;20610;-77
2022/08/23 11:43:55;;;;;;;0.30;0.30;;;24.00;99.90;;;;;;5116146;28;20219;-75
2022/08/23 11:46:36;;;;;;;0.13;0.13;;;24.20;99.90;;;;;;5115688;28;20199;-75
2022/08/23 11:49:16;;;;;;;0.20;0.20;;;24.30;99.90;;;;;;5110681;28;20199;-76
2022/08/23 11:51:55;;;;;;;0.15;0.15;;;24.20;99.90;;;;;;5095978;28;20628;-76
2022/08/23 11:54:40;;;;;;;0.10;0.10;;;24.50;99.90;;;;;;5094109;28;20655;-75
2022/08/23 11:57:36;;;;;;;0.20;0.20;;;24.20;99.90;;;;;;5094552;28;20188;-75
2022/08/23 12:00:23;;;;;;;0.15;0.15;;;24.00;99.90;;;;;;5095565;28;20689;-76
2022/08/23 12:03:06;;;;;;;0.45;0.40;;;23.80;99.90;;;;;;5095492;28;20204;-75
2022/08/23 12:05:38;;;;;;;0.20;0.20;;;23.80;99.90;;;;;;5113307;28;20188;-76
2022/08/23 12:08:04;;;;;;;0.38;0.38;;;23.60;99.90;;;;;;5115925;28;20290;-75
2022/08/23 12:10:45;;;;;;;0.28;0.28;;;23.80;99.90;;;;;;5114559;28;20290;-76
2022/08/23 12:13:17;;;;;;;0.43;0.43;;;23.60;99.90;;;;;;5114944;28;20195;-76
2022/08/23 12:16:11;;;;;;;10.85;0.38;;;23.70;99.90;;;;;;5114190;28;20195;-75
2022/08/23 12:18:52;;;;;;;0.32;0.32;;;23.50;99.90;;;;;;5114510;28;20230;-75
2022/08/23 12:21:30;;;;;;;1.60;0.30;;;23.30;99.90;;;;;;5115600;28;20223;-75
2022/08/23 12:24:23;;;;;;;0.65;0.47;;;23.50;99.90;;;;;;5114790;28;20219;-75
2022/08/23 12:27:01;;;;;;;0.20;0.20;;;23.40;99.90;;;;;;5108886;28;20196;-75
2022/08/23 12:29:51;;;;;;;0.30;0.30;;;23.20;99.90;;;;;;5114531;28;20218;-74
2022/08/23 12:32:25;;;;;;;0.10;0.10;;;23.50;99.90;;;;;;5115549;28;20654;-76
2022/08/23 12:34:57;;;;;;;0.35;0.35;;;23.40;99.90;;;;;;5114293;28;20202;-75
2022/08/23 12:38:27;;;;;;;6.00;0.88;;;23.40;99.90;;;;;;5115806;28;20282;-76
2022/08/23 12:40:54;;;;;;;0.13;0.13;;;23.50;99.90;;;;;;5074650;28;20287;-76
2022/08/23 12:43:23;;;;;;;0.30;0.30;;;23.50;99.90;;;;;;5113649;28;20207;-75
2022/08/23 12:45:55;;;;;;;0.20;0.20;;;23.00;99.90;;;;;;5115153;28;20195;-75
2022/08/23 12:48:25;;;;;;;0.20;0.20;;;23.00;99.90;;;;;;5114982;28;20268;-74
2022/08/23 12:50:55;;;;;;;0.20;0.20;;;23.20;99.90;;;;;;5115433;28;20202;-75
2022/08/23 12:53:37;;;;;;;0.22;0.22;;;23.20;99.90;;;;;;5113722;28;20198;-75
2022/08/23 12:56:25;;;;;;;0.20;0.20;;;23.20;99.90;;;;;;5114146;28;20633;-75
2022/08/23 12:58:54;;;;;;;0.45;0.45;;;23.30;99.90;;;;;;5114011;28;20215;-75
2022/08/23 13:01:30;;;;;;;3.78;0.40;;;23.40;99.90;;;;;;5114646;28;20210;-75
2022/08/23 13:04:13;;;;;;;0.30;0.30;;;23.20;99.90;;;;;;5115203;28;20281;-75
2022/08/23 13:06:50;;;;;;;0.10;0.10;;;23.10;99.90;;;;;;5114703;28;20566;-75
2022/08/23 13:09:32;;;;;;;0.10;0.10;;;22.90;99.90;;;;;;5113799;28;20195;-75
2022/08/23 13:12:01;;;;;;;0.20;0.20;;;22.90;99.90;;;;;;5114495;28;20195;-75
2022/08/23 13:14:30;;;;;;;0.10;0.10;;;22.80;99.90;;;;;;5113514;28;20286;-75
2022/08/23 13:16:58;;;;;;;0.38;0.20;;;22.70;99.90;;;;;;5114884;28;20217;-75
2022/08/23 13:19:31;;;;;;;0.30;0.30;;;23.10;99.90;;;;;;5113478;28;20199;-76
2022/08/23 13:22:16;;;;;;;0.20;0.20;;;23.20;99.90;;;;;;5114801;28;20226;-73
2022/08/23 13:24:44;;;;;;;0.22;0.22;;;23.30;99.90;;;;;;5115090;28;20587;-76
2022/08/23 13:27:22;;;;;;;0.10;0.10;;;23.30;99.90;;;;;;5113703;28;20662;-75
2022/08/23 13:30:09;;;;;;;0.20;0.20;;;23.00;99.90;;;;;;5115038;28;20274;-74